createdAt,value
2018-05-13T00:00:57.459Z,39.15
2018-05-13T00:03:28.494Z,39.56
2018-05-13T00:05:58.938Z,39.26
2018-05-13T00:08:29.534Z,39.11
2018-05-13T00:11:01.603Z,39.01
2018-05-13T00:13:32.642Z,38.97
2018-05-13T00:16:04.284Z,38.97
2018-05-13T00:18:34.736Z,38.83
2018-05-13T00:21:09.777Z,38.69
2018-05-13T00:23:40.528Z,38.80
2018-05-13T00:26:11.271Z,38.62
2018-05-13T00:28:42.891Z,38.70
2018-05-13T00:31:20.294Z,39.13
2018-05-13T00:33:52.074Z,39.65
2018-05-13T00:36:30.163Z,40.10
2018-05-13T00:39:01.635Z,40.06
2018-05-13T00:41:33.761Z,39.64
2018-05-13T00:44:04.250Z,39.34
2018-05-13T00:46:34.655Z,39.15
2018-05-13T00:49:05.237Z,39.13
2018-05-13T00:51:38.297Z,39.10
2018-05-13T00:54:17.755Z,39.04
2018-05-13T00:56:50.340Z,38.99
2018-05-13T00:59:21.027Z,38.92
2018-05-13T01:01:53.145Z,38.83
2018-05-13T01:04:23.825Z,38.93
2018-05-13T01:06:54.210Z,39.08
2018-05-13T01:09:25.318Z,39.29
2018-05-13T01:11:58.246Z,39.18
2018-05-13T01:14:29.286Z,39.07
2018-05-13T01:17:00.842Z,39.08
2018-05-13T01:19:31.801Z,39.67
2018-05-13T01:22:05.200Z,40.15
2018-05-13T01:24:36.121Z,40.62
2018-05-13T01:27:11.960Z,41.10
2018-05-13T01:29:44.055Z,41.25
2018-05-13T01:35:08.267Z,41.25
2018-05-13T01:37:38.982Z,41.27
2018-05-13T01:40:09.448Z,41.70
2018-05-13T01:42:42.691Z,42.01
2018-05-13T01:45:26.531Z,42.24
2018-05-13T01:47:57.522Z,42.35
2018-05-13T01:50:35.584Z,42.47
2018-05-13T01:53:09.560Z,42.80
2018-05-13T01:55:40.744Z,42.55
2018-05-13T01:58:11.271Z,42.37
2018-05-13T02:00:42.817Z,42.23
2018-05-13T02:03:13.602Z,42.41
2018-05-13T02:05:43.954Z,42.47
2018-05-13T02:08:14.777Z,42.27
2018-05-13T02:10:45.918Z,42.11
2018-05-13T02:13:31.081Z,42.49
2018-05-13T02:16:01.878Z,42.70
2018-05-13T02:18:32.396Z,42.75
2018-05-13T02:21:05.926Z,42.48
2018-05-13T02:23:39.601Z,42.46
2018-05-13T02:26:09.964Z,42.58
2018-05-13T02:28:42.861Z,42.42
2018-05-13T02:31:18.659Z,42.97
2018-05-13T02:33:50.401Z,43.20
2018-05-13T02:36:20.771Z,43.17
2018-05-13T02:38:51.179Z,43.47
2018-05-13T02:41:22.823Z,43.39
2018-05-13T02:43:53.475Z,43.34
2018-05-13T02:46:24.154Z,43.21
2018-05-13T02:48:54.367Z,43.27
2018-05-13T02:51:24.934Z,43.44
2018-05-13T02:53:55.623Z,43.47
2018-05-13T02:56:40.704Z,43.37
2018-05-13T02:59:11.464Z,43.05
2018-05-13T03:01:52.597Z,43.25
2018-05-13T03:04:23.441Z,43.16
2018-05-13T03:06:53.826Z,43.26
2018-05-13T03:09:24.221Z,43.32
2018-05-13T03:11:54.638Z,43.59
2018-05-13T03:14:25.009Z,43.80
2018-05-13T03:16:55.790Z,43.78
2018-05-13T03:19:26.097Z,43.95
2018-05-13T03:21:56.875Z,45.43
2018-05-13T03:24:29.236Z,45.17
2018-05-13T03:26:59.737Z,45.33
2018-05-13T03:29:30.163Z,45.21
2018-05-13T03:32:01.003Z,45.32
2018-05-13T03:34:31.470Z,45.62
2018-05-13T03:37:01.817Z,45.80
2018-05-13T03:39:32.277Z,45.23
2018-05-13T03:42:02.588Z,45.06
2018-05-13T03:44:34.445Z,45.41
2018-05-13T03:47:05.328Z,45.49
2018-05-13T03:49:35.987Z,45.31
2018-05-13T03:52:07.306Z,45.00
2018-05-13T03:54:37.765Z,45.08
2018-05-13T03:57:14.896Z,45.05
2018-05-13T03:59:45.599Z,45.71
2018-05-13T04:02:16.471Z,45.29
2018-05-13T04:04:48.236Z,45.51
2018-05-13T04:07:19.710Z,45.21
2018-05-13T04:12:08.224Z,45.65
2018-05-13T04:15:42.076Z,46.43
2018-05-13T04:18:13.045Z,46.78
2018-05-13T04:20:43.481Z,48.00
2018-05-13T04:23:13.909Z,48.90
2018-05-13T04:25:44.612Z,49.21
2018-05-13T04:28:14.924Z,49.10
2018-05-13T04:30:45.560Z,48.71
2018-05-13T04:33:16.343Z,48.48
2018-05-13T04:35:46.720Z,48.16
2018-05-13T04:38:17.636Z,47.78
2018-05-13T04:40:53.985Z,47.21
2018-05-13T04:43:24.802Z,46.93
2018-05-13T04:45:55.705Z,46.53
2018-05-13T04:48:26.326Z,46.24
2018-05-13T04:50:57.194Z,46.01
2018-05-13T04:53:27.663Z,45.66
2018-05-13T04:55:58.172Z,45.54
2018-05-13T04:58:28.530Z,45.30
2018-05-13T05:00:59.488Z,45.30
2018-05-13T05:03:30.156Z,45.24
2018-05-13T05:06:00.819Z,45.43
2018-05-13T05:08:31.162Z,46.23
2018-05-13T05:11:01.977Z,46.04
2018-05-13T05:13:32.316Z,45.95
2018-05-13T05:16:03.286Z,45.40
2018-05-13T05:18:34.118Z,45.05
2018-05-13T05:21:04.687Z,44.42
2018-05-13T05:23:35.280Z,44.44
2018-05-13T05:26:06.011Z,44.64
2018-05-13T05:28:36.543Z,44.46
2018-05-13T05:31:07.072Z,44.53
2018-05-13T05:33:38.150Z,44.58
2018-05-13T05:36:20.783Z,44.63
2018-05-13T05:38:54.647Z,44.25
2018-05-13T05:41:26.043Z,44.33
2018-05-13T05:43:58.772Z,44.26
2018-05-13T05:46:29.731Z,43.00
2018-05-13T05:49:07.020Z,42.87
2018-05-13T05:51:37.773Z,42.42
2018-05-13T05:54:18.810Z,41.49
2018-05-13T05:56:50.708Z,41.58
2018-05-13T05:59:21.423Z,42.45
2018-05-13T06:01:52.595Z,43.02
2018-05-13T06:04:23.354Z,43.44
2018-05-13T06:06:54.891Z,43.17
2018-05-13T06:09:26.458Z,42.17
2018-05-13T06:12:00.523Z,42.30
2018-05-13T06:14:31.644Z,41.44
2018-05-13T06:17:03.466Z,40.93
2018-05-13T06:19:41.062Z,42.00
2018-05-13T06:22:11.886Z,42.55
2018-05-13T06:24:42.624Z,42.49
2018-05-13T06:27:13.135Z,42.08
2018-05-13T06:29:44.999Z,41.20
2018-05-13T06:32:15.753Z,41.64
2018-05-13T06:34:46.173Z,42.66
2018-05-13T06:37:17.617Z,43.08
2018-05-13T06:39:48.008Z,43.35
2018-05-13T06:42:25.808Z,43.53
2018-05-13T06:44:56.253Z,43.06
2018-05-13T06:47:28.696Z,41.77
2018-05-13T06:50:02.148Z,41.40
2018-05-13T06:52:32.936Z,43.24
2018-05-13T06:55:13.025Z,42.95
2018-05-13T06:57:44.371Z,41.40
2018-05-13T07:00:18.691Z,41.08
2018-05-13T07:02:49.445Z,40.51
2018-05-13T07:05:20.591Z,40.59
2018-05-13T07:07:52.713Z,41.45
2018-05-13T07:10:24.754Z,43.10
2018-05-13T07:12:56.141Z,43.97
2018-05-13T07:15:43.762Z,45.21
2018-05-13T07:18:14.227Z,45.57
2018-05-13T07:20:45.461Z,46.56
2018-05-13T07:23:18.081Z,46.75
2018-05-13T07:25:48.895Z,46.65
2018-05-13T07:28:20.343Z,46.93
2018-05-13T07:30:51.278Z,47.08
2018-05-13T07:33:25.197Z,47.36
2018-05-13T07:35:58.167Z,48.21
2018-05-13T07:38:29.243Z,47.96
2018-05-13T07:41:00.701Z,48.19
2018-05-13T07:43:31.140Z,48.36
2018-05-13T07:46:05.857Z,48.20
2018-05-13T07:48:37.252Z,47.89
2018-05-13T07:51:20.529Z,47.93
2018-05-13T07:53:52.389Z,47.50
2018-05-13T07:56:23.834Z,47.29
2018-05-13T07:58:55.415Z,47.48
2018-05-13T08:01:34.434Z,46.53
2018-05-13T08:04:06.270Z,46.05
2018-05-13T08:06:40.225Z,46.74
2018-05-13T08:09:17.250Z,48.24
2018-05-13T08:11:52.355Z,48.50
2018-05-13T08:14:23.263Z,48.66
2018-05-13T08:16:56.913Z,48.93
2018-05-13T08:19:28.264Z,49.29
2018-05-13T08:24:41.862Z,50.05
2018-05-13T08:27:17.494Z,50.76
2018-05-13T08:29:49.536Z,51.09
2018-05-13T08:32:31.117Z,51.80
2018-05-13T08:37:57.680Z,54.12
2018-05-13T08:40:28.678Z,54.85
2018-05-13T08:43:01.240Z,55.58
2018-05-13T08:45:32.056Z,56.37
2018-05-13T08:48:03.492Z,55.92
2018-05-13T08:50:36.841Z,55.34
2018-05-13T08:58:39.937Z,55.83
2018-05-13T09:01:16.697Z,57.14
2018-05-13T09:03:48.122Z,58.95
2018-05-13T09:06:21.469Z,58.68
2018-05-13T09:08:57.339Z,60.83
2018-05-13T09:11:30.024Z,59.95
2018-05-13T09:14:06.972Z,60.61
2018-05-13T09:16:45.440Z,60.93
2018-05-13T09:19:18.762Z,61.18
2018-05-13T09:21:54.315Z,61.63
2018-05-13T09:24:28.094Z,61.37
2018-05-13T09:27:13.699Z,61.96
2018-05-13T09:29:45.251Z,61.50
2018-05-13T09:32:30.384Z,61.41
2018-05-13T09:35:05.609Z,62.47
2018-05-13T09:37:37.590Z,62.50
2018-05-13T09:40:19.568Z,63.59
2018-05-13T09:42:57.968Z,63.83
2018-05-13T09:45:32.225Z,65.36
2018-05-13T09:48:05.913Z,65.38
2018-05-13T09:50:37.392Z,66.29
2018-05-13T09:53:10.157Z,65.48
2018-05-13T09:55:43.858Z,65.67
2018-05-13T09:58:16.650Z,66.16
2018-05-13T10:00:47.922Z,65.98
2018-05-13T10:03:20.781Z,66.43
2018-05-13T10:05:55.723Z,67.12
2018-05-13T10:08:29.007Z,66.83
2018-05-13T10:11:01.053Z,65.89
2018-05-13T10:13:31.980Z,66.09
2018-05-13T10:16:09.322Z,66.00
2018-05-13T10:18:45.358Z,66.67
2018-05-13T10:21:18.432Z,67.68
2018-05-13T10:23:53.395Z,67.91
2018-05-13T10:26:25.125Z,67.64
2018-05-13T10:29:01.893Z,68.14
2018-05-13T10:34:31.448Z,68.24
2018-05-13T10:37:05.074Z,67.67
2018-05-13T10:42:37.832Z,68.99
2018-05-13T10:45:09.233Z,68.55
2018-05-13T10:47:56.234Z,69.33
2018-05-13T10:50:28.188Z,69.88
2018-05-13T10:53:02.522Z,70.39
2018-05-13T10:55:36.899Z,69.85
2018-05-13T10:58:15.916Z,70.01
2018-05-13T11:00:49.572Z,69.86
2018-05-13T11:03:23.320Z,69.32
2018-05-13T11:05:57.541Z,69.52
2018-05-13T11:08:30.211Z,68.93
2018-05-13T11:11:02.626Z,69.22
2018-05-13T11:13:34.951Z,68.75
2018-05-13T11:16:07.755Z,68.45
2018-05-13T11:18:38.772Z,68.56
2018-05-13T11:21:14.162Z,68.94
2018-05-13T11:23:44.915Z,69.50
2018-05-13T11:26:20.484Z,69.30
2018-05-13T11:28:52.687Z,69.15
2018-05-13T11:31:26.670Z,69.54
2018-05-13T11:33:58.426Z,69.45
2018-05-13T11:36:32.170Z,69.65
2018-05-13T11:39:02.749Z,69.94
2018-05-13T11:41:34.806Z,69.70
2018-05-13T11:44:14.639Z,69.51
2018-05-13T11:46:46.784Z,69.40
2018-05-13T11:49:19.153Z,69.38
2018-05-13T11:51:55.917Z,69.66
2018-05-13T11:54:28.254Z,69.14
2018-05-13T11:57:00.377Z,69.43
2018-05-13T11:59:32.260Z,69.78
2018-05-13T12:04:59.378Z,70.41
2018-05-13T12:07:48.336Z,69.85
2018-05-13T12:10:31.632Z,69.55
2018-05-13T12:13:10.397Z,70.10
2018-05-13T12:15:46.596Z,69.94
2018-05-13T12:18:18.483Z,70.33
2018-05-13T12:20:55.756Z,70.11
2018-05-13T12:23:30.199Z,70.99
2018-05-13T12:26:03.343Z,70.25
2018-05-13T12:28:37.697Z,70.45
2018-05-13T12:31:12.940Z,70.06
2018-05-13T12:33:46.319Z,69.92
2018-05-13T12:36:26.586Z,69.68
2018-05-13T12:39:02.098Z,69.24
2018-05-13T12:41:33.428Z,68.72
2018-05-13T12:44:04.372Z,69.53
2018-05-13T12:46:37.834Z,69.30
2018-05-13T12:49:08.491Z,69.04
2018-05-13T12:51:39.096Z,68.88
2018-05-13T12:54:10.804Z,68.88
2018-05-13T12:56:42.175Z,68.79
2018-05-13T12:59:18.807Z,68.60
2018-05-13T13:01:55.932Z,68.55
2018-05-13T13:04:26.803Z,68.99
2018-05-13T13:06:58.592Z,68.31
2018-05-13T13:09:30.056Z,68.58
2018-05-13T13:12:01.557Z,68.77
2018-05-13T13:17:12.476Z,68.93
2018-05-13T13:19:51.108Z,69.49
2018-05-13T13:22:22.347Z,70.29
2018-05-13T13:24:53.279Z,70.63
2018-05-13T13:27:25.825Z,71.04
2018-05-13T13:29:56.415Z,70.66
2018-05-13T13:32:27.312Z,70.72
2018-05-13T13:35:00.297Z,70.14
2018-05-13T13:37:31.536Z,69.92
2018-05-13T13:40:02.597Z,69.67
2018-05-13T13:42:40.527Z,69.57
2018-05-13T13:45:15.900Z,69.03
2018-05-13T13:47:55.262Z,70.06
2018-05-13T13:50:34.317Z,69.84
2018-05-13T13:53:06.533Z,70.04
2018-05-13T13:55:40.734Z,69.97
2018-05-13T13:58:12.232Z,70.30
2018-05-13T14:00:43.131Z,71.01
2018-05-13T14:03:15.572Z,70.77
2018-05-13T14:05:46.591Z,70.14
2018-05-13T14:08:17.339Z,70.09
2018-05-13T14:10:47.847Z,70.40
2018-05-13T14:13:19.289Z,70.70
2018-05-13T14:15:53.346Z,70.43
2018-05-13T14:21:22.028Z,69.51
2018-05-13T14:23:54.913Z,69.74
2018-05-13T14:26:30.813Z,70.27
2018-05-13T14:29:02.685Z,70.07
2018-05-13T14:31:42.123Z,69.58
2018-05-13T14:34:15.819Z,69.15
2018-05-13T14:36:46.680Z,69.44
2018-05-13T14:39:21.059Z,69.25
2018-05-13T14:41:53.529Z,69.56
2018-05-13T14:44:24.992Z,69.71
2018-05-13T14:46:56.786Z,69.46
2018-05-13T14:49:28.080Z,68.81
2018-05-13T14:51:59.814Z,68.81
2018-05-13T14:54:31.286Z,69.17
2018-05-13T14:57:01.650Z,68.20
2018-05-13T14:59:33.161Z,68.35
2018-05-13T15:02:03.952Z,68.88
2018-05-13T15:04:40.304Z,68.96
2018-05-13T15:07:12.548Z,69.13
2018-05-13T15:09:43.237Z,69.76
2018-05-13T15:12:21.677Z,69.65
2018-05-13T15:14:55.728Z,70.03
2018-05-13T15:17:29.155Z,70.20
2018-05-13T15:20:01.011Z,70.18
2018-05-13T15:22:38.847Z,70.24
2018-05-13T15:25:18.836Z,70.69
2018-05-13T15:27:50.135Z,70.05
2018-05-13T15:30:38.535Z,69.60
2018-05-13T15:33:17.248Z,70.10
2018-05-13T15:35:53.791Z,70.13
2018-05-13T15:38:25.043Z,70.56
2018-05-13T15:43:52.369Z,70.61
2018-05-13T15:46:26.127Z,71.04
2018-05-13T15:48:57.869Z,71.17
2018-05-13T15:51:34.731Z,71.19
2018-05-13T15:54:13.159Z,71.07
2018-05-13T15:56:55.249Z,70.95
2018-05-13T15:59:31.009Z,70.72
2018-05-13T16:02:03.752Z,70.29
2018-05-13T16:04:37.035Z,70.55
2018-05-13T16:07:13.888Z,70.10
2018-05-13T16:09:53.632Z,70.12
2018-05-13T16:12:35.770Z,69.85
2018-05-13T16:15:13.961Z,70.35
2018-05-13T16:17:55.095Z,70.31
2018-05-13T16:22:59.225Z,70.41
2018-05-13T16:25:35.959Z,70.63
2018-05-13T16:28:07.785Z,70.78
2018-05-13T16:30:39.409Z,69.93
2018-05-13T16:33:10.609Z,69.65
2018-05-13T16:35:44.046Z,69.83
2018-05-13T16:38:15.264Z,69.21
2018-05-13T16:40:47.862Z,69.36
2018-05-13T16:43:19.720Z,69.89
2018-05-13T16:45:50.945Z,70.18
2018-05-13T16:48:21.490Z,70.18
2018-05-13T16:50:52.484Z,69.87
2018-05-13T16:53:24.365Z,69.69
2018-05-13T16:55:56.349Z,69.39
2018-05-13T16:58:28.339Z,69.93
2018-05-13T17:01:08.700Z,69.83
2018-05-13T17:03:40.830Z,70.05
2018-05-13T17:06:16.483Z,69.64
2018-05-13T17:08:49.463Z,70.19
2018-05-13T17:11:32.036Z,69.86
2018-05-13T17:14:06.687Z,69.83
2018-05-13T17:16:41.517Z,69.54
2018-05-13T17:19:12.336Z,69.50
2018-05-13T17:21:54.924Z,69.59
2018-05-13T17:24:26.601Z,69.31
2018-05-13T17:26:58.874Z,69.16
2018-05-13T17:29:35.308Z,70.00
2018-05-13T17:32:07.447Z,69.87
2018-05-13T17:34:40.832Z,69.25
2018-05-13T17:37:12.493Z,69.60
2018-05-13T17:39:58.504Z,69.22
2018-05-13T17:42:42.502Z,68.13
2018-05-13T17:51:16.716Z,68.66
2018-05-13T17:53:53.590Z,68.42
2018-05-13T17:56:27.440Z,68.82
2018-05-13T17:59:02.141Z,68.55
2018-05-13T18:01:37.998Z,69.24
2018-05-13T18:04:10.182Z,68.75
2018-05-13T18:06:41.754Z,68.37
2018-05-13T18:09:13.179Z,68.24
2018-05-13T18:11:46.792Z,68.54
2018-05-13T18:14:19.131Z,68.39
2018-05-13T18:16:50.369Z,68.69
2018-05-13T18:19:21.447Z,68.32
2018-05-13T18:21:51.949Z,68.26
2018-05-13T18:24:24.717Z,68.32
2018-05-13T18:27:01.064Z,68.10
2018-05-13T18:29:39.759Z,68.19
2018-05-13T18:32:16.020Z,68.59
2018-05-13T18:34:47.676Z,68.85
2018-05-13T18:37:19.644Z,68.82
2018-05-13T18:39:50.685Z,68.96
2018-05-13T18:42:25.877Z,68.35
2018-05-13T18:44:59.014Z,68.96
2018-05-13T18:47:33.300Z,68.63
2018-05-13T18:50:04.180Z,68.69
2018-05-13T18:52:34.514Z,68.38
2018-05-13T18:55:08.919Z,68.83
2018-05-13T18:57:40.785Z,68.83
2018-05-13T19:00:16.253Z,68.50
2018-05-13T19:02:46.845Z,68.40
2018-05-13T19:05:21.899Z,68.22
2018-05-13T19:08:06.510Z,67.75
2018-05-13T19:10:37.643Z,68.22
2018-05-13T19:13:08.565Z,68.27
2018-05-13T19:15:39.549Z,68.39
2018-05-13T19:18:10.367Z,68.27
2018-05-13T19:20:43.244Z,68.52
2018-05-13T19:23:14.755Z,68.54
2018-05-13T19:25:50.476Z,68.37
2018-05-13T19:28:22.333Z,68.70
2018-05-13T19:30:53.804Z,68.73
2018-05-13T19:33:53.124Z,68.66
2018-05-13T19:36:49.420Z,68.50
2018-05-13T19:39:32.404Z,69.49
2018-05-13T19:42:06.429Z,69.34
2018-05-13T19:44:43.890Z,69.38
2018-05-13T19:47:15.869Z,69.09
2018-05-13T19:49:49.368Z,69.29
2018-05-13T19:52:22.034Z,69.20
2018-05-13T19:54:55.338Z,69.37
2018-05-13T19:57:28.993Z,69.53
2018-05-13T19:59:59.898Z,69.56
2018-05-13T20:02:31.895Z,70.19
2018-05-13T20:05:05.742Z,69.89
2018-05-13T20:07:40.970Z,70.01
2018-05-13T20:10:12.261Z,69.77
2018-05-13T20:12:44.361Z,69.34
2018-05-13T20:15:36.940Z,69.49
2018-05-13T20:18:14.098Z,69.54
2018-05-13T20:20:45.757Z,69.53
2018-05-13T20:23:29.045Z,68.96
2018-05-13T20:26:02.057Z,68.99
2018-05-13T20:28:34.160Z,68.92
2018-05-13T20:31:06.153Z,68.72
2018-05-13T20:33:41.368Z,68.86
2018-05-13T20:36:11.954Z,68.40
2018-05-13T20:38:44.814Z,68.40
2018-05-13T20:41:16.040Z,68.42
2018-05-13T20:43:47.694Z,68.65
2018-05-13T20:46:20.502Z,68.70
2018-05-13T20:48:55.091Z,68.62
2018-05-13T20:51:26.668Z,68.50
2018-05-13T20:53:58.066Z,68.43
2018-05-13T20:59:09.565Z,68.66
2018-05-13T21:01:48.029Z,68.17
2018-05-13T21:04:19.249Z,68.44
2018-05-13T21:06:58.278Z,67.95
2018-05-13T21:09:33.071Z,68.10
2018-05-13T21:12:04.243Z,67.95
2018-05-13T21:14:36.285Z,67.83
2018-05-13T21:17:09.850Z,67.59
2018-05-13T21:19:49.103Z,67.37
2018-05-13T21:22:20.092Z,68.04
2018-05-13T21:24:52.444Z,68.53
2018-05-13T21:27:25.955Z,68.38
2018-05-13T21:29:57.849Z,68.45
2018-05-13T21:32:29.212Z,68.69
2018-05-13T21:35:09.472Z,69.04
2018-05-13T21:37:41.954Z,68.74
2018-05-13T21:40:12.672Z,68.73
2018-05-13T21:42:43.435Z,68.05
2018-05-13T21:45:17.234Z,68.45
2018-05-13T21:47:48.030Z,68.14
2018-05-13T21:50:21.453Z,68.00
2018-05-13T21:52:55.127Z,68.59
2018-05-13T21:55:28.708Z,69.04
2018-05-13T21:57:59.530Z,68.48
2018-05-13T22:00:30.882Z,69.30
2018-05-13T22:03:02.296Z,69.46
2018-05-13T22:05:34.066Z,69.57
2018-05-13T22:08:06.584Z,69.32
2018-05-13T22:10:56.783Z,69.72
2018-05-13T22:13:27.725Z,69.87
2018-05-13T22:16:04.525Z,70.38
2018-05-13T22:18:36.717Z,71.12
2018-05-13T22:21:08.125Z,71.23
2018-05-13T22:23:38.882Z,71.08
2018-05-13T22:26:10.579Z,71.41
2018-05-13T22:28:52.282Z,71.63
2018-05-13T22:31:28.332Z,71.81
2018-05-13T22:33:58.859Z,72.04
2018-05-13T22:36:29.830Z,72.09
2018-05-13T22:39:00.788Z,72.01
2018-05-13T22:41:33.541Z,71.72
2018-05-13T22:44:04.466Z,72.19
2018-05-13T22:46:50.259Z,72.41
2018-05-13T22:49:20.849Z,73.00
2018-05-13T22:51:51.178Z,73.15
2018-05-13T22:54:22.015Z,73.14
2018-05-13T22:56:53.582Z,72.30
2018-05-13T22:59:24.515Z,72.44
2018-05-13T23:01:55.726Z,72.38
2018-05-13T23:04:26.133Z,72.23
2018-05-13T23:06:56.553Z,72.25
2018-05-13T23:09:27.024Z,72.76
2018-05-13T23:11:57.479Z,72.84
2018-05-13T23:14:28.690Z,72.82
2018-05-13T23:16:59.806Z,73.09
2018-05-13T23:19:30.125Z,73.29
2018-05-13T23:22:00.459Z,73.55
2018-05-13T23:24:30.892Z,73.68
2018-05-13T23:27:01.601Z,73.65
2018-05-13T23:29:32.129Z,73.35
2018-05-13T23:32:03.067Z,73.72
2018-05-13T23:34:34.341Z,74.01
2018-05-13T23:37:04.944Z,74.25
2018-05-13T23:39:36.610Z,74.33
2018-05-13T23:42:11.887Z,74.56
2018-05-13T23:44:42.630Z,74.56
2018-05-13T23:47:13.472Z,74.70
2018-05-13T23:49:44.548Z,74.71
2018-05-13T23:52:15.649Z,75.36
2018-05-13T23:54:51.760Z,75.74
2018-05-13T23:57:23.108Z,75.66
2018-05-13T23:59:56.646Z,76.18
